Winifrede, West Virginia
Current Conditions -  °F | °C
As of 5:54 PM on Saturday 25 Oct 2014 (Local Time) from KCRW Reporting Station
Few Clouds Few Clouds  
Wind Chill: 65°   Ceiling: Unl
Heat Index: 65°   Visibility: 10mi
Dew Point: 49°   Wind: 13mph
Humidity: 56%   Direction: 230°SW
Pressure: 29.9"   Gusts: NA
Location:  38.19°N, 81.56°W
Report Text: KCRW 252154Z 23011KT 10SM FEW030 18/09 A2990 RMK AO2 SLP126 T01830094 $
Loading
Personal Weather Stations






























Interactive Weather Map
Tropical Storm Tracking
New forecast layout! Learn more

10-Day Weather Forecast

Advertisements
Track Severe Weather on mobile